Time;durP1;ratioP1;P1;durP2;ratioP2;P2;SDS_P1;SDS_P2;PMS_P1;PMS_P2;Temp;Humidity;BMP_temperature;BMP_pressure;BME280_temperature;BME280_humidity;BME280_pressure;Samples;Min_cycle;Max_cycle;Signal;HPM_P1;HPM_P2
2024/03/31 00:01:18;;;;;;;35.63;8.03;;;;;;;13.61;60.18;99202.97;5003829;28;20228;-70
2024/03/31 00:03:44;;;;;;;44.43;8.63;;;;;;;13.59;60.18;99197.25;5009309;28;20255;-70
2024/03/31 00:06:11;;;;;;;35.50;9.10;;;;;;;13.56;60.23;99200.69;5003927;28;20300;-70
2024/03/31 00:08:37;;;;;;;39.27;7.97;;;;;;;13.54;60.44;99197.63;5004232;28;20232;-70
2024/03/31 00:11:06;;;;;;;32.07;8.03;;;;;;;13.49;60.40;99190.06;5001235;28;20200;-70
2024/03/31 00:13:32;;;;;;;48.87;8.47;;;;;;;13.46;60.64;99182.88;5004812;28;20576;-70
2024/03/31 00:15:59;;;;;;;36.33;7.90;;;;;;;13.42;61.00;99168.84;5009272;28;20232;-70
2024/03/31 00:18:26;;;;;;;44.37;9.47;;;;;;;13.37;61.08;99161.28;5001234;28;20201;-70
2024/03/31 00:20:53;;;;;;;54.37;15.63;;;;;;;13.31;61.14;99157.47;5008379;28;20219;-70
2024/03/31 00:23:19;;;;;;;43.83;11.73;;;;;;;13.25;62.11;99157.06;5003841;28;20204;-70
2024/03/31 00:25:45;;;;;;;43.77;12.73;;;;;;;13.21;62.61;99148.38;5009194;28;20221;-69
2024/03/31 00:28:11;;;;;;;45.40;13.10;;;;;;;13.16;62.90;99156.72;5003856;28;20200;-70
2024/03/31 00:30:37;;;;;;;45.13;14.50;;;;;;;13.12;62.63;99160.47;5005113;28;20193;-70
2024/03/31 00:33:03;;;;;;;40.43;13.23;;;;;;;13.08;63.05;99157.81;5010130;28;20193;-70
2024/03/31 00:35:31;;;;;;;39.97;14.20;;;;;;;13.04;63.45;99172.94;5001817;28;20268;-69
2024/03/31 00:37:56;;;;;;;43.77;12.80;;;;;;;12.99;63.74;99165.34;4989781;28;20204;-70
2024/03/31 00:40:22;;;;;;;40.07;11.20;;;;;;;12.95;64.12;99167.19;4981820;28;20584;-70
2024/03/31 00:42:48;;;;;;;39.03;12.07;;;;;;;12.92;63.81;99164.53;5006164;28;20275;-70
2024/03/31 00:45:14;;;;;;;35.07;10.60;;;;;;;12.88;63.72;99161.91;5010263;28;20312;-70
2024/03/31 00:47:40;;;;;;;34.70;10.63;;;;;;;12.85;63.88;99165.31;5008752;28;20570;-70
2024/03/31 00:50:06;;;;;;;41.97;12.53;;;;;;;12.82;64.30;99166.03;5005314;28;20213;-70
2024/03/31 00:52:33;;;;;;;44.83;10.77;;;;;;;12.79;64.48;99166.78;5009721;28;20208;-70
2024/03/31 00:54:59;;;;;;;41.37;11.63;;;;;;;12.76;64.52;99180.78;4993251;28;20208;-70
2024/03/31 00:57:25;;;;;;;39.93;11.73;;;;;;;12.72;64.61;99185.31;5005530;28;20198;-70
2024/03/31 00:59:51;;;;;;;42.73;12.80;;;;;;;12.68;65.51;99181.13;5007941;28;20682;-70
2024/03/31 01:02:16;;;;;;;48.83;16.03;;;;;;;12.63;65.50;99178.84;4985700;28;20296;-70
2024/03/31 01:04:43;;;;;;;50.83;16.73;;;;;;;12.59;65.92;99173.53;5007258;28;20281;-70
2024/03/31 01:07:08;;;;;;;56.83;21.97;;;;;;;12.55;66.24;99180.69;5005765;28;20224;-70
2024/03/31 01:09:36;;;;;;;50.07;19.00;;;;;;;12.51;66.68;99181.78;5007187;28;20220;-70
2024/03/31 01:12:02;;;;;;;48.80;15.17;;;;;;;12.47;67.66;99176.47;4990321;28;20208;-70
2024/03/31 01:14:28;;;;;;;43.07;13.67;;;;;;;12.43;68.65;99173.06;4987845;28;20205;-70
2024/03/31 01:16:55;;;;;;;41.57;14.27;;;;;;;12.40;68.97;99165.09;4992325;28;20255;-69
2024/03/31 01:19:21;;;;;;;46.43;13.80;;;;;;;12.35;69.17;99168.09;4991395;28;20699;-70
2024/03/31 01:21:47;;;;;;;42.40;13.83;;;;;;;12.32;69.25;99168.84;5009193;28;20783;-70
2024/03/31 01:24:14;;;;;;;38.83;14.60;;;;;;;12.27;69.11;99172.59;5009611;28;20206;-70
2024/03/31 01:26:40;;;;;;;44.60;13.63;;;;;;;12.23;70.52;99165.78;5002891;28;20220;-70
2024/03/31 01:29:06;;;;;;;43.90;15.23;;;;;;;12.18;69.40;99166.91;5007522;28;20208;-70
2024/03/31 01:31:32;;;;;;;46.97;14.27;;;;;;;12.15;71.67;99172.13;5011101;28;20196;-70
2024/03/31 01:33:58;;;;;;;33.97;9.87;;;;;;;12.10;71.83;99170.63;5002016;28;20280;-70
2024/03/31 01:36:24;;;;;;;39.43;10.47;;;;;;;12.06;72.19;99166.44;5004312;28;20220;-70
2024/03/31 01:38:50;;;;;;;32.17;9.50;;;;;;;12.00;72.70;99166.00;4992159;28;20188;-70
2024/03/31 01:41:17;;;;;;;32.20;8.80;;;;;;;11.96;72.40;99175.81;5005698;28;20569;-70
2024/03/31 01:43:43;;;;;;;35.03;8.77;;;;;;;11.91;73.03;99170.84;5003161;28;20232;-70
2024/03/31 01:46:09;;;;;;;40.10;9.53;;;;;;;11.87;73.13;99164.81;5005474;28;20798;-69
2024/03/31 01:48:35;;;;;;;41.10;8.80;;;;;;;11.84;73.66;99164.75;4987773;28;20231;-70
2024/03/31 01:51:01;;;;;;;32.70;9.77;;;;;;;11.81;73.21;99162.84;4991310;28;20675;-71
2024/03/31 01:53:27;;;;;;;37.37;8.63;;;;;;;11.78;73.62;99164.34;5002212;28;20243;-70
2024/03/31 01:55:52;;;;;;;34.30;8.20;;;;;;;11.76;73.91;99177.16;5009184;28;20651;-70
2024/03/31 01:58:20;;;;;;;32.67;8.23;;;;;;;11.73;74.12;99175.28;5007886;28;20221;-70
2024/03/31 02:00:46;;;;;;;27.80;7.63;;;;;;;11.70;74.59;99169.97;4991782;28;20295;-69
2024/03/31 02:03:12;;;;;;;35.93;8.37;;;;;;;11.67;72.55;99165.38;5005683;28;20936;-70
2024/03/31 02:05:37;;;;;;;39.80;8.47;;;;;;;11.65;73.83;99165.00;5006494;28;20584;-70
2024/03/31 02:08:04;;;;;;;28.57;8.63;;;;;;;11.62;74.46;99165.72;4990740;28;20218;-70
2024/03/31 02:10:30;;;;;;;33.57;8.73;;;;;;;11.59;75.22;99167.22;4989636;28;20690;-70
2024/03/31 02:12:56;;;;;;;30.70;6.77;;;;;;;11.57;76.16;99168.69;5004897;28;20297;-70
2024/03/31 02:15:22;;;;;;;39.70;7.73;;;;;;;11.54;76.18;99170.16;5005681;28;20223;-70
2024/03/31 02:17:49;;;;;;;30.67;7.87;;;;;;;11.53;76.44;99166.00;4992444;28;20701;-70
2024/03/31 02:20:15;;;;;;;44.57;9.57;;;;;;;11.52;77.05;99169.00;5003508;28;20203;-70
2024/03/31 02:22:41;;;;;;;30.00;9.07;;;;;;;11.51;77.07;99155.06;4993084;28;20206;-70
2024/03/31 02:25:07;;;;;;;30.17;8.13;;;;;;;11.50;75.41;99155.41;5007049;28;20203;-69
2024/03/31 02:27:33;;;;;;;33.43;7.57;;;;;;;11.48;79.19;99160.28;4993194;28;20198;-70
2024/03/31 02:29:58;;;;;;;38.70;8.90;;;;;;;11.46;79.67;99160.66;4993508;28;20728;-70
2024/03/31 02:32:27;;;;;;;36.13;8.73;;;;;;;11.44;79.97;99165.53;4992356;28;20192;-70
2024/03/31 02:34:52;;;;;;;32.70;9.17;;;;;;;11.42;80.37;99178.38;4994285;28;20192;-70
2024/03/31 02:37:20;;;;;;;36.57;9.83;;;;;;;11.40;80.02;99182.50;4990682;28;20235;-70
2024/03/31 02:39:45;;;;;;;37.80;10.53;;;;;;;11.37;80.50;99180.56;4995683;28;20199;-69
2024/03/31 02:42:12;;;;;;;45.20;11.87;;;;;;;11.35;79.69;99175.69;4999995;28;20201;-70
2024/03/31 02:44:38;;;;;;;26.77;10.57;;;;;;;11.33;80.45;99177.16;4992743;28;20203;-70
2024/03/31 02:47:05;;;;;;;38.00;9.97;;;;;;;11.30;80.74;99191.09;5006578;28;20227;-69
2024/03/31 02:49:33;;;;;;;38.70;11.33;;;;;;;11.27;81.40;99184.66;4990859;28;20210;-70
2024/03/31 02:51:59;;;;;;;29.40;10.47;;;;;;;11.24;82.06;99179.34;5011277;28;20209;-70
2024/03/31 02:54:25;;;;;;;41.27;11.27;;;;;;;11.21;82.62;99180.81;5005554;28;20217;-69
2024/03/31 02:56:51;;;;;;;31.07;9.43;;;;;;;11.17;83.55;99173.97;5002898;28;20238;-70
2024/03/31 02:59:17;;;;;;;36.50;12.70;;;;;;;11.15;84.03;99178.84;4986860;28;20214;-70
2024/03/31 03:01:43;;;;;;;33.63;12.23;;;;;;;11.11;82.99;99176.19;5008335;28;20202;-70
2024/03/31 03:04:09;;;;;;;35.63;11.17;;;;;;;11.07;83.83;99185.94;5002747;28;20207;-70
2024/03/31 03:06:36;;;;;;;29.80;10.63;;;;;;;11.03;84.94;99192.31;4992826;28;20696;-69
2024/03/31 03:09:03;;;;;;;37.73;12.13;;;;;;;10.99;85.73;99186.25;4988245;28;20225;-69
2024/03/31 03:11:30;;;;;;;34.07;13.37;;;;;;;10.94;86.33;99197.91;5008425;28;20729;-70
2024/03/31 03:13:55;;;;;;;33.97;12.33;;;;;;;10.90;87.15;99193.69;4991875;28;20266;-70
2024/03/31 03:16:24;;;;;;;42.33;12.97;;;;;;;10.85;87.41;99188.72;4987306;28;20218;-69
2024/03/31 03:18:50;;;;;;;39.43;13.87;;;;;;;10.80;87.22;99189.03;5006940;28;20226;-69
2024/03/31 03:21:17;;;;;;;40.40;12.80;;;;;;;10.75;87.23;99184.06;5004616;28;20207;-69
2024/03/31 03:23:44;;;;;;;44.83;13.97;;;;;;;10.70;87.51;99182.53;5008486;28;20223;-69
2024/03/31 03:26:10;;;;;;;44.30;14.00;;;;;;;10.66;87.54;99178.31;5008982;28;20654;-69
2024/03/31 03:28:36;;;;;;;44.07;12.53;;;;;;;10.62;88.03;99180.91;4992463;28;20196;-69
2024/03/31 03:31:03;;;;;;;41.67;13.30;;;;;;;10.59;89.26;99189.56;4992242;28;20643;-69
2024/03/31 03:33:30;;;;;;;46.17;12.40;;;;;;;10.56;90.73;99186.88;4994479;28;20434;-70
2024/03/31 03:36:02;;;;;;;35.23;12.73;;;;;;;10.52;92.62;99180.78;4994978;28;20226;-69
2024/03/31 03:38:28;;;;;;;35.27;12.60;;;;;;;10.50;93.77;99175.13;4983398;28;20656;-69
2024/03/31 03:40:56;;;;;;;39.57;12.40;;;;;;;10.46;94.47;99185.59;5003172;28;20207;-69
2024/03/31 03:43:25;;;;;;;42.47;11.90;;;;;;;10.42;94.90;99184.81;5005281;28;20197;-69
2024/03/31 03:45:56;;;;;;;46.03;11.87;;;;;;;10.40;95.88;99181.00;4989852;28;20233;-69
2024/03/31 03:48:22;;;;;;;38.37;11.63;;;;;;;10.38;96.15;99188.50;4998591;28;20209;-69
2024/03/31 03:50:48;;;;;;;30.57;10.60;;;;;;;10.34;97.78;99177.91;4998402;28;20720;-70
2024/03/31 03:53:13;;;;;;;36.33;12.60;;;;;;;10.33;98.21;99186.94;5013322;28;20205;-69
2024/03/31 03:55:40;;;;;;;38.63;10.33;;;;;;;10.29;100.00;99180.84;4999743;28;20227;-69
2024/03/31 03:58:07;;;;;;;35.03;10.93;;;;;;;10.29;100.00;99190.63;4990187;28;20619;-70
2024/03/31 04:00:39;;;;;;;29.37;9.07;;;;;;;10.26;100.00;99184.19;5000983;28;20232;-70
2024/03/31 04:03:04;;;;;;;33.27;9.70;;;;;;;10.23;100.00;99182.28;5006939;28;20201;-69
2024/03/31 04:05:31;;;;;;;36.73;11.33;;;;;;;10.21;100.00;99187.16;5011116;28;20225;-69
2024/03/31 04:07:56;;;;;;;39.07;10.53;;;;;;;10.19;100.00;99186.00;4992626;28;20205;-70
2024/03/31 04:10:23;;;;;;;42.30;10.33;;;;;;;10.16;100.00;99189.34;4992837;28;20568;-70
2024/03/31 04:12:48;;;;;;;30.50;9.20;;;;;;;10.12;100.00;99193.78;5000969;28;20347;-69
2024/03/31 04:15:16;;;;;;;28.97;9.60;;;;;;;10.10;100.00;99191.50;4996340;28;20816;-69
2024/03/31 04:17:42;;;;;;;30.20;9.77;;;;;;;10.05;100.00;99186.53;4997632;28;20201;-70
2024/03/31 04:20:09;;;;;;;29.17;9.30;;;;;;;10.01;100.00;99185.72;4994645;28;20209;-69
2024/03/31 04:22:34;;;;;;;35.33;9.30;;;;;;;9.97;100.00;99192.81;4993476;28;20204;-69
2024/03/31 04:25:01;;;;;;;35.17;10.37;;;;;;;9.94;100.00;99201.41;4993964;28;20219;-69
2024/03/31 04:27:27;;;;;;;33.23;8.90;;;;;;;9.89;100.00;99193.81;5001000;28;20197;-69
2024/03/31 04:29:53;;;;;;;27.07;9.00;;;;;;;9.84;100.00;99202.00;4999585;28;20208;-69
2024/03/31 04:32:20;;;;;;;33.17;9.53;;;;;;;9.81;100.00;99204.59;5009853;28;20208;-69
2024/03/31 04:34:46;;;;;;;29.67;9.60;;;;;;;9.77;100.00;99198.50;5005944;28;20380;-70
2024/03/31 04:37:12;;;;;;;41.20;9.23;;;;;;;9.72;100.00;99196.94;4992079;28;20287;-70
2024/03/31 04:39:38;;;;;;;33.23;9.67;;;;;;;9.70;100.00;99195.75;5010376;28;20644;-69
2024/03/31 04:42:04;;;;;;;35.70;8.90;;;;;;;9.67;100.00;99197.22;4995403;28;20655;-69
2024/03/31 04:44:30;;;;;;;32.53;8.53;;;;;;;9.64;100.00;99191.91;5005493;28;20209;-69
2024/03/31 04:46:56;;;;;;;32.00;9.37;;;;;;;9.62;100.00;99194.13;4993683;28;20483;-69
2024/03/31 04:49:24;;;;;;;26.23;8.97;;;;;;;9.59;100.00;99189.56;4988760;28;20303;-69
2024/03/31 04:51:50;;;;;;;31.50;8.93;;;;;;;9.57;100.00;99192.53;4988327;28;20243;-70
2024/03/31 04:54:20;;;;;;;27.07;7.90;;;;;;;9.55;100.00;99188.72;4988236;28;20228;-69
2024/03/31 04:56:46;;;;;;;24.07;8.37;;;;;;;9.54;100.00;99189.84;5003720;28;20241;-69
2024/03/31 04:59:13;;;;;;;27.80;9.70;;;;;;;9.53;100.00;99191.72;4988034;28;20542;-69
2024/03/31 05:01:38;;;;;;;36.90;8.13;;;;;;;9.51;100.00;99178.13;4993137;28;20212;-69
2024/03/31 05:04:05;;;;;;;34.07;8.00;;;;;;;9.52;100.00;99181.53;5010617;28;20203;-69
2024/03/31 05:06:33;;;;;;;25.87;8.20;;;;;;;9.51;100.00;99187.91;4988214;28;20280;-69
2024/03/31 05:09:00;;;;;;;34.13;8.47;;;;;;;9.51;100.00;99183.41;5008884;28;20215;-69
2024/03/31 05:11:27;;;;;;;28.20;10.23;;;;;;;9.51;100.00;99188.69;4993199;28;20220;-70
2024/03/31 05:13:52;;;;;;;25.27;8.07;;;;;;;9.52;100.00;99187.56;5010653;28;20580;-69
2024/03/31 05:16:19;;;;;;;25.67;7.37;;;;;;;9.54;100.00;99179.31;4994285;28;20861;-70
2024/03/31 05:18:44;;;;;;;34.47;9.10;;;;;;;9.54;100.00;99177.44;5010509;28;20214;-69
2024/03/31 05:21:15;;;;;;;35.83;9.10;;;;;;;9.57;100.00;99176.72;5002942;28;20201;-70
2024/03/31 05:23:45;;;;;;;30.00;7.10;;;;;;;9.61;100.00;99179.41;4991731;28;20208;-70
2024/03/31 05:26:13;;;;;;;32.73;7.80;;;;;;;9.64;100.00;99176.84;4997997;28;20224;-70
2024/03/31 05:28:44;;;;;;;27.47;7.10;;;;;;;9.70;100.00;99179.94;5002461;28;20575;-70
2024/03/31 05:31:11;;;;;;;34.47;7.33;;;;;;;9.74;100.00;99176.25;4998995;28;20256;-70
2024/03/31 05:33:57;;;;;;;36.30;7.60;;;;;;;9.81;100.00;99186.91;5001740;28;20201;-70
2024/03/31 05:36:23;;;;;;;27.80;7.40;;;;;;;9.87;100.00;99182.84;4993015;28;20232;-70
2024/03/31 05:38:53;;;;;;;19.90;5.80;;;;;;;9.92;100.00;99190.47;4979929;28;20296;-70
2024/03/31 05:41:22;;;;;;;29.73;7.63;;;;;;;10.00;100.00;99193.97;4991708;28;20252;-70
2024/03/31 05:43:48;;;;;;;43.17;8.90;;;;;;;10.05;100.00;99196.34;5000105;28;20200;-70
2024/03/31 05:46:14;;;;;;;28.57;7.00;;;;;;;10.10;100.00;99185.50;4991168;28;20221;-70
2024/03/31 05:48:40;;;;;;;39.83;7.80;;;;;;;10.16;100.00;99194.63;5008079;28;20252;-70
2024/03/31 05:51:06;;;;;;;30.70;7.60;;;;;;;10.22;100.00;99195.81;4991499;28;20201;-70
2024/03/31 05:53:36;;;;;;;35.13;7.60;;;;;;;10.28;100.00;99194.41;5007326;28;20656;-70
2024/03/31 05:56:06;;;;;;;30.03;8.30;;;;;;;10.32;100.00;99196.00;4990901;28;20307;-70
2024/03/31 05:58:32;;;;;;;33.43;7.93;;;;;;;10.40;100.00;99194.94;4984532;28;20203;-70
2024/03/31 06:00:59;;;;;;;30.57;6.77;;;;;;;10.46;100.00;99198.78;4988147;28;20198;-69
2024/03/31 06:03:27;;;;;;;30.67;6.90;;;;;;;10.54;100.00;99189.88;4993020;28;20300;-70
2024/03/31 06:05:53;;;;;;;33.90;7.50;;;;;;;10.62;100.00;99182.78;4994093;28;20312;-70
2024/03/31 06:08:19;;;;;;;33.20;6.90;;;;;;;10.70;100.00;99179.88;4995540;28;20210;-70
2024/03/31 06:10:45;;;;;;;29.53;6.77;;;;;;;10.79;100.00;99176.97;4999347;28;20213;-70
2024/03/31 06:13:12;;;;;;;34.80;7.10;;;;;;;10.89;100.00;99177.09;4988554;28;20572;-70
2024/03/31 06:15:38;;;;;;;38.30;8.23;;;;;;;10.98;100.00;99174.16;4994174;28;20224;-70
2024/03/31 06:18:04;;;;;;;21.60;5.53;;;;;;;11.10;100.00;99165.97;4988721;28;20203;-70
2024/03/31 06:20:31;;;;;;;28.70;6.53;;;;;;;11.20;100.00;99168.75;5006226;28;20209;-70
2024/03/31 06:22:57;;;;;;;26.30;5.67;;;;;;;11.33;100.00;99166.59;5006528;28;20227;-70
2024/03/31 06:25:23;;;;;;;29.73;6.10;;;;;;;11.44;100.00;99165.53;4991186;28;20262;-70
2024/03/31 06:27:49;;;;;;;34.83;6.50;;;;;;;11.57;100.00;99173.97;4987998;28;20654;-70
2024/03/31 06:30:17;;;;;;;44.83;12.17;;;;;;;11.67;100.00;99163.53;4989758;28;20271;-70
2024/03/31 06:32:42;;;;;;;59.90;15.83;;;;;;;11.80;100.00;99156.81;5008094;28;20838;-70
2024/03/31 06:35:09;;;;;;;52.63;13.77;;;;;;;11.93;100.00;99165.19;4991128;28;20295;-70
2024/03/31 06:37:34;;;;;;;38.70;9.37;;;;;;;12.04;100.00;99168.69;4989865;28;20192;-70
2024/03/31 06:40:01;;;;;;;46.03;9.17;;;;;;;12.15;100.00;99158.91;4990973;28;20201;-70
2024/03/31 06:42:29;;;;;;;28.67;5.87;;;;;;;12.25;100.00;99163.50;4994104;28;20247;-70
2024/03/31 06:44:58;;;;;;;41.07;7.37;;;;;;;12.34;100.00;99164.72;5006845;28;20199;-70
2024/03/31 06:47:25;;;;;;;35.67;7.20;;;;;;;12.45;100.00;99164.75;4990170;28;20224;-70
2024/03/31 06:49:52;;;;;;;27.73;5.97;;;;;;;12.53;100.00;99164.41;5007443;28;20255;-70
2024/03/31 06:52:17;;;;;;;29.30;6.13;;;;;;;12.63;100.00;99178.84;4992102;28;20242;-70
2024/03/31 06:54:44;;;;;;;31.70;5.97;;;;;;;12.71;100.00;99161.84;5007570;28;20200;-70
2024/03/31 06:57:09;;;;;;;27.57;6.57;;;;;;;12.80;100.00;99162.25;5005776;28;20644;-70
2024/03/31 06:59:36;;;;;;;28.47;6.33;;;;;;;12.89;100.00;99160.00;4996536;28;20300;-70
2024/03/31 07:02:03;;;;;;;29.27;5.60;;;;;;;12.98;99.59;99157.78;5005791;28;20193;-70
2024/03/31 07:04:31;;;;;;;34.93;7.37;;;;;;;13.06;99.02;99152.13;5003745;28;20224;-70
2024/03/31 07:06:56;;;;;;;30.57;6.57;;;;;;;13.15;97.79;99149.88;5002500;28;20249;-70
2024/03/31 07:09:23;;;;;;;29.10;5.97;;;;;;;13.25;96.92;99159.00;4991328;28;20240;-70
2024/03/31 07:11:48;;;;;;;31.73;7.37;;;;;;;13.35;95.29;99156.34;4991893;28;20224;-70
2024/03/31 07:14:15;;;;;;;32.03;8.00;;;;;;;13.43;94.62;99149.16;5006673;28;20200;-70
2024/03/31 07:16:44;;;;;;;33.83;7.77;;;;;;;13.52;93.71;99152.97;5007385;28;20661;-70
2024/03/31 07:19:10;;;;;;;34.97;7.53;;;;;;;13.60;92.13;99159.00;5007302;28;20205;-70
2024/03/31 07:21:38;;;;;;;35.77;8.23;;;;;;;13.68;90.93;99148.03;4995205;28;20227;-70
2024/03/31 07:24:04;;;;;;;38.33;8.43;;;;;;;13.77;90.48;99147.63;4993920;28;20207;-70
2024/03/31 07:26:30;;;;;;;28.10;6.77;;;;;;;13.85;89.52;99152.56;4992352;28;20255;-70
2024/03/31 07:28:55;;;;;;;37.33;5.97;;;;;;;13.95;88.28;99153.66;4995750;28;20196;-70
2024/03/31 07:31:23;;;;;;;37.93;7.73;;;;;;;14.01;87.76;99155.56;4991015;28;20210;-70
2024/03/31 07:33:50;;;;;;;31.77;6.80;;;;;;;14.07;87.10;99164.66;4988336;28;20611;-70
2024/03/31 07:36:16;;;;;;;34.20;7.43;;;;;;;14.14;86.86;99158.56;5009698;28;20220;-70
2024/03/31 07:38:43;;;;;;;38.20;6.50;;;;;;;14.21;84.90;99166.53;5007952;28;20204;-70
2024/03/31 07:41:09;;;;;;;27.33;5.70;;;;;;;14.27;84.18;99168.44;5009648;28;20228;-70
2024/03/31 07:43:35;;;;;;;38.40;6.00;;;;;;;14.33;83.51;99169.56;5007145;28;20208;-70
2024/03/31 07:46:01;;;;;;;28.03;5.53;;;;;;;14.41;83.87;99175.59;5005579;28;20217;-70
2024/03/31 07:48:26;;;;;;;35.50;5.80;;;;;;;14.47;83.10;99172.16;5008871;28;20202;-70
2024/03/31 07:50:53;;;;;;;31.87;6.10;;;;;;;14.55;81.43;99172.91;5009654;28;20218;-70
2024/03/31 07:53:18;;;;;;;37.67;6.70;;;;;;;14.65;80.97;99177.44;5006643;28;20678;-70
2024/03/31 07:55:46;;;;;;;31.63;6.03;;;;;;;14.76;79.44;99164.84;5004502;28;20230;-70
2024/03/31 07:58:11;;;;;;;38.17;6.67;;;;;;;14.84;78.56;99159.13;5008169;28;20209;-70
2024/03/31 08:00:37;;;;;;;37.03;6.53;;;;;;;14.96;79.54;99155.25;5005728;28;20200;-70
2024/03/31 08:03:03;;;;;;;29.57;6.27;;;;;;;15.06;78.10;99152.53;5008922;28;20456;-70
2024/03/31 08:05:30;;;;;;;33.13;5.67;;;;;;;15.19;77.43;99158.16;5004276;28;20617;-70
2024/03/31 08:07:55;;;;;;;40.07;6.77;;;;;;;15.29;75.01;99150.13;5009695;28;20211;-70
2024/03/31 08:10:22;;;;;;;25.17;5.70;;;;;;;15.42;72.73;99156.50;5008082;28;20705;-71
2024/03/31 08:12:48;;;;;;;44.93;6.77;;;;;;;15.51;73.34;99164.03;5007683;28;20200;-70
2024/03/31 08:15:15;;;;;;;32.03;5.37;;;;;;;15.63;74.57;99163.56;5005237;28;20259;-70
2024/03/31 08:17:40;;;;;;;36.60;7.03;;;;;;;15.75;73.20;99177.16;5006918;28;20648;-70
2024/03/31 08:20:08;;;;;;;33.53;5.83;;;;;;;15.86;71.73;99169.84;5003521;28;20201;-70
2024/03/31 08:22:33;;;;;;;27.20;6.40;;;;;;;16.01;68.60;99171.22;5011378;28;20574;-70
2024/03/31 08:25:00;;;;;;;39.97;6.80;;;;;;;16.11;66.95;99165.03;5006021;28;20208;-70
2024/03/31 08:27:25;;;;;;;43.20;6.70;;;;;;;16.23;67.03;99172.53;5010296;28;20284;-71
2024/03/31 08:29:54;;;;;;;35.17;6.57;;;;;;;16.34;67.58;99170.50;5006874;28;20275;-70
2024/03/31 08:32:20;;;;;;;37.83;7.20;;;;;;;16.46;67.68;99161.28;5008894;28;20277;-71
2024/03/31 08:34:46;;;;;;;31.13;6.13;;;;;;;16.60;65.83;99161.09;5009066;28;20284;-71
2024/03/31 08:37:12;;;;;;;35.00;7.43;;;;;;;16.73;65.89;99160.19;5009799;28;20225;-71
2024/03/31 08:39:38;;;;;;;26.77;6.00;;;;;;;16.88;65.17;99171.41;5004330;28;20559;-70
2024/03/31 08:42:14;;;;;;;34.77;6.77;;;;;;;17.00;65.07;99171.63;5003269;28;20659;-70
2024/03/31 08:44:42;;;;;;;33.27;6.83;;;;;;;17.11;62.98;99172.25;5001159;28;20211;-71
2024/03/31 08:47:11;;;;;;;36.87;8.20;;;;;;;17.23;62.91;99185.03;5005761;28;20231;-70
2024/03/31 08:49:39;;;;;;;33.83;7.20;;;;;;;17.33;62.85;99180.72;5006840;28;20246;-71
2024/03/31 08:52:05;;;;;;;37.47;7.53;;;;;;;17.41;60.92;99185.56;5003858;28;20226;-71
2024/03/31 08:54:32;;;;;;;45.50;8.23;;;;;;;17.51;59.04;99195.31;5007785;28;20610;-71
2024/03/31 08:56:57;;;;;;;35.03;7.17;;;;;;;17.60;58.16;99205.50;4999311;28;20308;-71
2024/03/31 08:59:24;;;;;;;33.90;6.90;;;;;;;17.67;60.54;99211.47;5000786;28;20292;-71
2024/03/31 09:01:50;;;;;;;38.00;7.57;;;;;;;17.78;60.33;99195.28;5003823;28;20206;-71
2024/03/31 09:04:18;;;;;;;51.73;8.77;;;;;;;17.85;58.01;99190.56;5005864;28;20224;-71
2024/03/31 09:06:43;;;;;;;36.53;8.43;;;;;;;17.93;59.92;99188.53;5004312;28;20217;-70
2024/03/31 09:09:10;;;;;;;43.27;8.70;;;;;;;18.01;57.64;99198.69;5004884;28;20206;-71
2024/03/31 09:11:35;;;;;;;27.17;6.90;;;;;;;18.07;57.67;99177.63;5005291;28;20597;-71
2024/03/31 09:14:01;;;;;;;36.07;7.37;;;;;;;18.15;56.68;99179.75;5006066;28;20205;-71
2024/03/31 09:16:27;;;;;;;35.07;7.83;;;;;;;18.24;56.33;99179.22;5004179;28;20217;-70
2024/03/31 09:18:53;;;;;;;35.63;7.30;;;;;;;18.34;56.48;99184.41;5005481;28;20205;-70
2024/03/31 09:21:20;;;;;;;31.57;7.73;;;;;;;18.45;58.24;99187.63;5004405;28;20197;-71
2024/03/31 09:23:47;;;;;;;36.77;8.53;;;;;;;18.56;55.37;99201.53;5006849;28;20200;-71
2024/03/31 09:26:15;;;;;;;47.57;8.83;;;;;;;18.64;56.44;99200.25;5006209;28;20224;-71
2024/03/31 09:28:41;;;;;;;33.83;8.27;;;;;;;18.74;56.16;99193.19;5002569;28;20204;-71
2024/03/31 09:31:07;;;;;;;33.97;8.30;;;;;;;18.82;55.36;99191.84;5005131;28;20232;-71
2024/03/31 09:33:37;;;;;;;43.43;9.10;;;;;;;18.88;55.74;99187.56;4993344;28;20200;-71
2024/03/31 09:36:03;;;;;;;38.43;8.30;;;;;;;18.96;53.36;99197.69;5007332;28;20228;-71
2024/03/31 09:38:31;;;;;;;35.60;8.53;;;;;;;19.04;53.20;99196.34;5008509;28;20204;-71
2024/03/31 09:40:56;;;;;;;41.87;7.87;;;;;;;19.13;53.58;99206.50;5004918;28;20284;-71
2024/03/31 09:43:24;;;;;;;40.17;8.37;;;;;;;19.21;52.35;99197.16;5007399;28;20280;-71
2024/03/31 09:45:49;;;;;;;37.33;8.10;;;;;;;19.25;52.75;99198.59;5005617;28;20363;-71
2024/03/31 09:48:25;;;;;;;44.93;9.37;;;;;;;19.32;53.16;99201.13;5000339;28;20624;-71
2024/03/31 09:51:00;;;;;;;39.23;9.10;;;;;;;19.38;51.75;99190.66;4982876;28;20228;-71
2024/03/31 09:53:29;;;;;;;47.23;10.07;;;;;;;19.44;52.79;99199.72;5000661;28;20197;-71
2024/03/31 09:56:02;;;;;;;43.40;9.03;;;;;;;19.49;53.67;99196.53;5006840;28;20224;-71
2024/03/31 09:58:35;;;;;;;40.33;9.17;;;;;;;19.54;52.13;99198.72;5003760;28;20193;-71
2024/03/31 10:01:03;;;;;;;38.63;10.10;;;;;;;19.59;52.99;99206.25;5003502;28;20878;-71
2024/03/31 10:03:34;;;;;;;54.30;9.70;;;;;;;19.64;53.98;99208.41;5006008;28;20192;-71
2024/03/31 10:06:01;;;;;;;46.70;9.43;;;;;;;19.71;53.23;99214.38;5005401;28;20226;-71
2024/03/31 10:08:31;;;;;;;42.97;9.30;;;;;;;19.77;53.50;99209.28;5006729;28;20196;-71
2024/03/31 10:10:59;;;;;;;42.87;10.03;;;;;;;19.83;54.07;99208.34;5002988;28;20212;-71
2024/03/31 10:13:26;;;;;;;28.80;8.77;;;;;;;19.88;52.50;99205.16;5004616;28;20533;-71
2024/03/31 10:15:54;;;;;;;40.00;9.17;;;;;;;19.93;52.29;99204.63;5002203;28;20777;-71
2024/03/31 10:18:22;;;;;;;35.17;8.63;;;;;;;19.99;51.75;99200.31;4997444;28;20205;-71
2024/03/31 10:20:49;;;;;;;35.13;7.60;;;;;;;20.05;49.12;99197.84;4995761;28;20200;-71
2024/03/31 10:23:18;;;;;;;49.57;8.00;;;;;;;20.13;50.60;99196.53;4984704;28;20192;-71
2024/03/31 10:25:44;;;;;;;46.40;8.57;;;;;;;20.19;51.66;99192.91;5003749;28;20223;-71
2024/03/31 10:28:13;;;;;;;45.10;8.07;;;;;;;20.26;50.34;99208.81;5003926;28;20210;-71
2024/03/31 10:30:39;;;;;;;39.10;7.87;;;;;;;20.31;47.98;99205.63;5007590;28;20303;-71
2024/03/31 10:33:05;;;;;;;35.63;8.80;;;;;;;20.37;47.62;99206.59;5007077;28;20287;-71
2024/03/31 10:35:35;;;;;;;25.90;6.43;;;;;;;20.40;45.20;99213.81;4994107;28;20220;-71
2024/03/31 10:38:02;;;;;;;37.13;8.10;;;;;;;20.45;46.58;99213.31;4999799;28;20696;-71
2024/03/31 10:40:28;;;;;;;44.93;8.30;;;;;;;20.50;46.04;99206.66;5002717;28;20285;-71
2024/03/31 10:42:56;;;;;;;41.53;7.83;;;;;;;20.54;44.73;99210.00;5006913;28;20197;-71
2024/03/31 10:45:24;;;;;;;48.80;9.03;;;;;;;20.60;45.13;99208.28;5006814;28;20456;-71
2024/03/31 10:47:50;;;;;;;46.60;9.17;;;;;;;20.65;44.88;99208.50;5002983;28;20216;-71
2024/03/31 10:50:16;;;;;;;42.00;8.20;;;;;;;20.70;44.28;99217.97;5003838;28;20302;-71
2024/03/31 10:52:43;;;;;;;38.40;8.63;;;;;;;20.76;46.27;99214.34;5001689;28;20469;-71
2024/03/31 10:55:09;;;;;;;43.17;7.70;;;;;;;20.82;45.96;99214.56;4999520;28;20657;-71
2024/03/31 10:57:36;;;;;;;37.57;7.70;;;;;;;20.85;44.08;99208.38;5009113;28;20211;-71
2024/03/31 11:00:05;;;;;;;45.23;8.40;;;;;;;20.91;43.00;99214.72;5010123;28;20207;-71
2024/03/31 11:02:35;;;;;;;36.97;7.50;;;;;;;20.94;44.54;99216.53;5012014;28;20285;-71
2024/03/31 11:05:06;;;;;;;41.10;9.07;;;;;;;20.99;43.93;99216.78;5008434;28;20287;-71
2024/03/31 11:07:35;;;;;;;41.97;8.40;;;;;;;21.04;43.44;99213.56;5011609;28;20243;-71
2024/03/31 11:10:02;;;;;;;37.27;9.33;;;;;;;21.11;43.63;99212.63;5003710;28;20567;-71
2024/03/31 11:12:28;;;;;;;40.50;7.93;;;;;;;21.16;44.14;99207.44;4993341;28;20219;-71
2024/03/31 11:14:56;;;;;;;47.03;9.13;;;;;;;21.22;44.38;99210.38;5005441;28;20215;-71
2024/03/31 11:17:23;;;;;;;46.33;9.52;;;;;;;21.27;43.94;99207.16;5000798;28;20254;-71
2024/03/31 11:19:52;;;;;;;40.70;9.43;;;;;;;21.29;43.46;99204.78;5010281;28;20287;-71